Gillette, WY

6:28 PM MDT on August 01, 2014 (GMT -0600)
Gillette-Campbell County (KGCC) Elev 4364 ft | 44.34 °N, 105.54 °W | Change Station

Current weather conditions updated 35 minutes ago

Clear
Clear
82 °F
Feels Like 82 °F
N
16
Wind Variable Wind from WSW

Tomorrow is forecast to be nearly the same temperature as today.

Today
High -- | Low -- °F
--% Chance of Precip.
Yesterday
High -- | Low -- °F
Precip. -- in
5:49 AM 8:27 PM
Waxing Crescent, 30% visible
Pressure 30.00 in
Visibility 10.0 miles
Clouds Clear
Dew Point 42 °F
Humidity 24%
Rainfall 0.00 in
Snow Depth Not available.
UV 2 out of 12
Pollen 6.90 out of 12
Air Quality Not available.
Flu Activity Not available.
METAR KGCC 012353Z AUTO 24014KT 10SM CLR 28/06 A3014 RMK AO2 SLP159 T02780056 10328 20261 58004

More Conditions Fewer Conditions

Pressure 30.00 in
Visibility 10.0 miles
Clouds Clear
Dew Point 42 °F
Humidity 24%
Rainfall 0.00 in
Snow Depth Not available.
UV 2 out of 12
Pollen 6.90 out of 12
Air Quality Not available.
Flu Activity Not available.
METAR KGCC 012353Z AUTO 24014KT 10SM CLR 28/06 A3014 RMK AO2 SLP159 T02780056 10328 20261 58004

More Conditions Fewer Conditions

10-Day Weather Forecast

Almanac

Astronomy

Aug. 01, 2014 Rise Set
Actual Time 5:49 AM MDT 8:27 PM MDT
Civil Twilight 5:15 AM MDT 9:01 PM MDT
Nautical Twilight 4:33 AM MDT 9:43 PM MDT
Astronomical Twilight 3:45 AM MDT 10:30 PM MDT
Moon 11:31 AM MDT (8/1) 10:57 PM MDT (8/1)
Length of Visible Light 15h 45m
Length of Day
14h 38m
Tomorrow will be 2m 23s shorter.
Waxing Crescent, 30% of the Moon is Illuminated
Today
Waxing Crescent
Aug 3
First Quarter
Aug 10
Full
Aug 17
Last Quarter
Aug 25
New

Today's Extremes

State Highs State Lows

Community

WunderPhotos

Upload Photos

1,739,763 photos uploaded!

Nearby

Snow Depth

Station Depth Elevation
Casper Mountain 0 in 7850 ft
Burroughs Creek 0 in 8750 ft
Big Sandy Opening 0 in 9080 ft
Crow Creek 2 in 8330 ft
Cinnabar Park 0 in 9690 ft

Earthquake Activity

City Distance Mag. Time & Date
No recent earthquake activity has been reported nearby.
Minimum magnitude displayed is 2.5.

Coastal Water Temperatures

Place Temperature
No Stations Reporting

Nearby Weather Stations

Station Location Temp. Heat Index Dew Point Humidity Wind Precip. Elev Updated Type
RAWS ECHETA WY, Gillette, WY 84 °F 81 °F 40 °F 21% WSW  at  14 mph 0.00 in / hr 4396 ft 4:51 PM MDT MADIS

Show More Stations Show Fewer Stations